Time;durP1;ratioP1;P1;durP2;ratioP2;P2;SDS_P1;SDS_P2;PMS_P1;PMS_P2;Temp;Humidity;BMP_temperature;BMP_pressure;BME280_temperature;BME280_humidity;BME280_pressure;Samples;Min_cycle;Max_cycle;Signal;HPM_P1;HPM_P2
2022/03/24 00:00:59;;;;;;;28.10;21.20;;;;;;;7.60;51.74;101030.00;1088102;54;20030;-78
2022/03/24 00:02:10;;;;;;;30.42;20.80;;;;;;;7.65;51.25;101035.88;1087969;54;20098;-77
2022/03/24 00:03:14;;;;;;;30.77;19.50;;;;;;;7.68;51.04;101033.00;1088640;46;20740;-78
2022/03/24 00:04:18;;;;;;;25.38;19.20;;;;;;;7.75;51.10;101028.97;1088189;54;20042;-77
2022/03/24 00:05:23;;;;;;;27.13;20.45;;;;;;;7.77;50.71;101028.84;1096384;39;20825;-80
2022/03/24 00:06:24;;;;;;;25.75;19.05;;;;;;;7.81;50.56;101035.69;1088159;54;20037;-77
2022/03/24 00:07:28;;;;;;;24.00;18.30;;;;;;;7.84;50.31;101032.81;1088183;54;20030;-79
2022/03/24 00:08:32;;;;;;;24.58;17.88;;;;;;;7.95;50.04;101030.28;1095848;39;20659;-79
2022/03/24 00:09:34;;;;;;;23.38;17.48;;;;;;;7.95;50.19;101032.94;1088241;54;20031;-78
2022/03/24 00:10:38;;;;;;;24.33;18.25;;;;;;;7.92;50.13;101027.84;1091441;46;20026;-76
2022/03/24 00:11:40;;;;;;;25.33;18.98;;;;;;;7.78;50.46;101026.13;1088050;54;20038;-77
2022/03/24 00:12:44;;;;;;;28.00;19.38;;;;;;;7.70;51.10;101032.91;1088204;54;20049;-77
2022/03/24 00:13:48;;;;;;;25.90;19.67;;;;;;;7.73;51.05;101022.91;1088174;54;20035;-78
2022/03/24 00:14:52;;;;;;;27.17;19.17;;;;;;;7.65;51.18;101031.38;1088176;54;20015;-77
2022/03/24 00:15:57;;;;;;;26.05;19.42;;;;;;;7.59;51.54;101026.47;1088130;54;20061;-77
2022/03/24 00:16:58;;;;;;;27.67;19.92;;;;;;;7.59;51.47;101026.47;1088174;54;20098;-77
2022/03/24 00:18:02;;;;;;;29.15;20.30;;;;;;;7.60;51.47;101025.53;1088189;54;20034;-77
2022/03/24 00:19:04;;;;;;;26.20;19.50;;;;;;;7.52;51.62;101033.16;1088163;54;20041;-77
2022/03/24 00:20:13;;;;;;;28.20;20.88;;;;;;;7.45;52.25;101031.88;1088189;54;20018;-78
2022/03/24 00:21:16;;;;;;;31.77;21.50;;;;;;;7.42;52.38;101035.56;1088097;54;20042;-77
2022/03/24 00:22:21;;;;;;;29.08;19.83;;;;;;;7.44;52.28;101035.47;1088104;54;20030;-77
2022/03/24 00:23:22;;;;;;;29.73;20.30;;;;;;;7.35;52.78;101028.94;1088188;54;20034;-77
2022/03/24 00:24:27;;;;;;;27.02;20.17;;;;;;;7.28;52.99;101033.78;1088191;54;20014;-79
2022/03/24 00:25:28;;;;;;;28.45;20.88;;;;;;;7.31;53.13;101030.94;1088111;54;20057;-77
2022/03/24 00:26:32;;;;;;;25.80;19.77;;;;;;;7.40;52.78;101029.50;1088079;54;20025;-79
2022/03/24 00:27:34;;;;;;;29.13;19.70;;;;;;;7.47;52.78;101024.59;1088161;54;20037;-77
2022/03/24 00:28:38;;;;;;;27.33;18.38;;;;;;;7.44;52.53;101025.66;1088170;54;20034;-79
2022/03/24 00:29:40;;;;;;;24.27;17.05;;;;;;;7.57;51.98;101025.72;1088122;54;20074;-78
2022/03/24 00:30:44;;;;;;;25.15;17.58;;;;;;;7.69;51.63;101016.09;1088121;54;20763;-77
2022/03/24 00:31:46;;;;;;;24.33;17.90;;;;;;;7.77;51.22;101015.56;1089328;47;20035;-79
2022/03/24 00:32:53;;;;;;;21.60;16.98;;;;;;;7.82;51.31;101018.78;1088159;54;20026;-77
2022/03/24 00:33:55;;;;;;;20.08;14.43;;;;;;;7.87;51.04;101016.63;1088124;54;20038;-78
2022/03/24 00:34:59;;;;;;;23.00;16.45;;;;;;;7.87;50.93;101011.31;1088152;54;20023;-77
2022/03/24 00:36:03;;;;;;;25.05;17.65;;;;;;;7.80;51.26;101010.03;1088092;54;20736;-77
2022/03/24 00:37:09;;;;;;;27.58;18.77;;;;;;;7.66;51.50;101013.63;1088114;54;20111;-77
2022/03/24 00:38:13;;;;;;;29.08;19.67;;;;;;;7.65;51.51;101014.56;1088139;54;20037;-76
2022/03/24 00:39:15;;;;;;;22.45;17.75;;;;;;;7.70;51.55;101011.59;1088061;54;20031;-77
2022/03/24 00:40:19;;;;;;;25.52;18.77;;;;;;;7.65;51.52;101018.06;1088089;54;20065;-77
2022/03/24 00:41:22;;;;;;;20.65;16.40;;;;;;;7.76;51.28;101013.84;1088045;54;20035;-77
2022/03/24 00:42:27;;;;;;;23.35;18.02;;;;;;;7.76;51.16;101019.16;1088121;54;20046;-78
2022/03/24 00:43:28;;;;;;;24.08;17.83;;;;;;;7.75;51.22;101014.78;1088136;54;20037;-77
2022/03/24 00:44:32;;;;;;;25.98;18.17;;;;;;;7.68;51.31;101016.16;1088075;54;20034;-78
2022/03/24 00:45:40;;;;;;;24.15;17.90;;;;;;;7.54;51.69;101017.94;1088096;54;20038;-77
2022/03/24 00:46:42;;;;;;;26.65;17.55;;;;;;;7.54;51.87;101017.09;1090614;47;20756;-78
2022/03/24 00:47:46;;;;;;;28.25;17.85;;;;;;;7.54;51.77;101012.63;1088090;54;20090;-77
2022/03/24 00:48:48;;;;;;;24.38;17.98;;;;;;;7.52;51.97;101017.19;1089571;39;20582;-78
2022/03/24 00:49:52;;;;;;;23.33;17.80;;;;;;;7.53;51.76;101013.59;1088066;54;20917;-77
2022/03/24 00:50:55;;;;;;;21.33;16.88;;;;;;;7.59;51.65;101007.84;1092081;39;20586;-77
2022/03/24 00:52:02;;;;;;;22.95;17.30;;;;;;;7.57;51.77;101007.09;1088040;54;20026;-77
2022/03/24 00:53:06;;;;;;;28.55;18.15;;;;;;;7.41;52.08;101009.06;1088662;47;20046;-78
2022/03/24 00:54:08;;;;;;;27.05;19.27;;;;;;;7.29;52.24;101008.91;1088100;54;20710;-77
2022/03/24 00:55:15;;;;;;;27.00;19.80;;;;;;;7.17;52.36;101012.38;1088103;54;20101;-77
2022/03/24 00:56:17;;;;;;;27.67;19.17;;;;;;;7.24;52.31;101002.16;1088070;54;20061;-77
2022/03/24 00:57:22;;;;;;;25.88;19.40;;;;;;;7.28;52.15;101009.84;1090838;47;20998;-77
2022/03/24 00:58:24;;;;;;;24.00;18.98;;;;;;;7.18;52.33;101011.41;1088081;54;20090;-78
2022/03/24 00:59:29;;;;;;;26.77;19.60;;;;;;;7.24;52.30;101007.50;1088041;54;20607;-78
2022/03/24 01:00:31;;;;;;;24.25;18.17;;;;;;;7.31;52.02;101014.16;1088049;54;20066;-81
2022/03/24 01:01:35;;;;;;;22.30;17.35;;;;;;;7.34;52.05;101012.13;1088537;47;20046;-77
2022/03/24 01:02:37;;;;;;;22.40;17.30;;;;;;;7.27;51.97;101007.31;1088007;54;20023;-78
2022/03/24 01:03:42;;;;;;;22.85;17.92;;;;;;;7.24;52.22;101008.38;1088057;54;20048;-78
2022/03/24 01:04:43;;;;;;;23.25;17.30;;;;;;;7.24;52.33;101008.38;1087784;54;20030;-77
2022/03/24 01:05:48;;;;;;;22.15;16.48;;;;;;;7.31;52.39;101011.47;1087809;54;20035;-77
2022/03/24 01:06:49;;;;;;;25.02;17.88;;;;;;;7.27;52.34;101007.31;1088050;54;20046;-77
2022/03/24 01:07:57;;;;;;;23.42;16.52;;;;;;;7.28;52.46;101009.00;1088047;54;20090;-77
2022/03/24 01:08:59;;;;;;;22.05;16.60;;;;;;;7.34;52.33;101006.81;1088183;54;20642;-77
2022/03/24 01:10:03;;;;;;;23.42;16.60;;;;;;;7.41;52.15;101011.72;1087991;54;20732;-78
2022/03/24 01:11:05;;;;;;;22.45;16.70;;;;;;;7.46;51.79;101012.28;1088062;54;20019;-78
2022/03/24 01:12:12;;;;;;;22.08;16.77;;;;;;;7.49;51.79;101012.06;1088025;54;20733;-78
2022/03/24 01:13:14;;;;;;;23.35;16.42;;;;;;;7.51;51.90;101014.66;1088094;54;20023;-78
2022/03/24 01:14:18;;;;;;;20.08;15.15;;;;;;;7.48;52.06;101011.22;1089678;39;20744;-78
2022/03/24 01:15:22;;;;;;;22.83;17.15;;;;;;;7.47;52.21;101009.50;1088424;54;20035;-78
2022/03/24 01:16:27;;;;;;;23.73;16.73;;;;;;;7.44;52.45;101008.88;1088388;54;20030;-78
2022/03/24 01:17:29;;;;;;;20.75;15.88;;;;;;;7.48;52.01;101015.69;1088458;54;20023;-77
2022/03/24 01:18:34;;;;;;;19.70;15.18;;;;;;;7.48;52.21;101005.91;1088415;54;20030;-78
2022/03/24 01:19:37;;;;;;;23.60;16.38;;;;;;;7.48;51.96;101005.91;1088470;54;20022;-78
2022/03/24 01:20:41;;;;;;;22.30;16.48;;;;;;;7.47;52.27;101008.66;1088411;54;20046;-78
2022/03/24 01:21:43;;;;;;;23.92;16.30;;;;;;;7.44;52.22;101003.56;1088330;54;20019;-78
2022/03/24 01:22:48;;;;;;;20.35;14.75;;;;;;;7.46;52.19;101002.47;1088378;54;20673;-78
2022/03/24 01:23:53;;;;;;;22.42;16.77;;;;;;;7.44;52.31;100998.22;1088758;46;20018;-81
2022/03/24 01:24:58;;;;;;;20.67;15.23;;;;;;;7.42;52.54;101000.13;1091144;46;20094;-78
2022/03/24 01:26:01;;;;;;;17.65;14.43;;;;;;;7.42;52.42;101005.44;1088384;54;20034;-78
2022/03/24 01:27:07;;;;;;;21.83;15.93;;;;;;;7.39;52.48;101000.31;1088450;54;20041;-79
2022/03/24 01:28:09;;;;;;;19.75;14.63;;;;;;;7.37;52.54;100999.59;1088413;54;20038;-79
2022/03/24 01:29:14;;;;;;;20.52;15.20;;;;;;;7.31;52.65;101001.69;1088484;54;20023;-78
2022/03/24 01:30:15;;;;;;;18.58;14.45;;;;;;;7.36;52.46;101005.88;1089587;46;20709;-78
2022/03/24 01:31:20;;;;;;;20.08;14.23;;;;;;;7.36;52.55;101006.69;1088398;54;20058;-78
2022/03/24 01:32:22;;;;;;;23.77;16.42;;;;;;;7.15;53.58;101003.63;1088388;54;20034;-78
2022/03/24 01:33:27;;;;;;;21.83;16.90;;;;;;;7.02;54.10;101011.56;1088457;54;20034;-77
2022/03/24 01:34:29;;;;;;;28.77;18.45;;;;;;;6.95;54.45;101003.13;1088458;54;20058;-79
2022/03/24 01:35:34;;;;;;;23.92;17.27;;;;;;;6.97;54.42;101009.19;1088446;54;20049;-78
2022/03/24 01:36:36;;;;;;;24.42;17.38;;;;;;;7.01;54.31;101002.72;1088365;54;20759;-78
2022/03/24 01:37:41;;;;;;;24.77;18.15;;;;;;;7.01;54.24;101002.72;1088443;54;20034;-78
2022/03/24 01:38:46;;;;;;;25.10;17.40;;;;;;;7.00;54.37;100995.69;1088342;54;20030;-79
2022/03/24 01:39:50;;;;;;;24.38;18.15;;;;;;;6.96;54.65;100988.88;1088413;54;20086;-77
2022/03/24 01:40:54;;;;;;;21.80;17.27;;;;;;;6.99;54.47;100996.63;1088051;54;20863;-79
2022/03/24 01:41:56;;;;;;;24.08;17.13;;;;;;;6.98;54.51;100992.28;1088137;54;20038;-77
2022/03/24 01:43:01;;;;;;;23.95;17.88;;;;;;;6.99;54.45;101001.94;1088417;54;20019;-78
2022/03/24 01:44:09;;;;;;;22.15;15.90;;;;;;;7.05;54.30;100998.03;1088384;54;20038;-78
2022/03/24 01:45:14;;;;;;;22.40;16.48;;;;;;;7.02;54.42;100996.44;1088432;54;20034;-79
2022/03/24 01:46:20;;;;;;;21.08;15.63;;;;;;;7.03;54.89;100989.34;1088377;54;20034;-78
2022/03/24 01:47:24;;;;;;;20.95;15.95;;;;;;;6.98;54.65;100986.09;1088445;54;20049;-78
2022/03/24 01:48:26;;;;;;;23.58;17.67;;;;;;;6.86;54.84;100993.06;1088458;54;20026;-77
2022/03/24 01:49:33;;;;;;;26.77;18.08;;;;;;;6.82;55.49;100991.53;1088440;54;20018;-77
2022/03/24 01:50:35;;;;;;;27.48;19.13;;;;;;;6.73;55.28;100993.00;1088957;46;20019;-78
2022/03/24 01:51:40;;;;;;;27.88;18.42;;;;;;;6.71;55.34;100994.88;1088365;54;20034;-78
2022/03/24 01:52:44;;;;;;;24.00;18.35;;;;;;;6.67;55.63;100994.22;1093379;39;20688;-78
2022/03/24 01:53:48;;;;;;;26.35;19.52;;;;;;;6.58;55.45;100994.81;1088029;54;20046;-79
2022/03/24 01:54:54;;;;;;;26.10;19.15;;;;;;;6.53;56.46;100999.53;1088392;54;20031;-78
2022/03/24 01:56:00;;;;;;;28.63;18.55;;;;;;;6.50;56.33;100997.94;1088367;54;20023;-78
2022/03/24 01:57:04;;;;;;;28.67;19.67;;;;;;;6.46;56.63;101000.88;1088413;54;20023;-78
2022/03/24 01:58:08;;;;;;;26.92;19.27;;;;;;;6.36;56.91;100993.47;1088413;54;20050;-77
2022/03/24 01:59:14;;;;;;;29.23;19.95;;;;;;;6.35;57.13;100997.06;1090019;46;20027;-77
2022/03/24 02:00:19;;;;;;;26.00;18.60;;;;;;;6.37;57.07;100992.53;1092857;39;20579;-78
2022/03/24 02:01:30;;;;;;;23.55;17.83;;;;;;;6.46;57.40;100995.56;1088347;54;20026;-78
2022/03/24 02:02:35;;;;;;;21.70;16.10;;;;;;;6.52;56.58;101003.13;1088284;54;20034;-79
2022/03/24 02:03:36;;;;;;;21.48;16.05;;;;;;;6.59;56.24;100991.22;1088369;54;20034;-78
2022/03/24 02:04:43;;;;;;;21.45;15.05;;;;;;;6.68;56.04;100993.28;1088372;54;20042;-78
2022/03/24 02:05:45;;;;;;;23.15;14.75;;;;;;;6.76;55.89;100992.78;1088374;54;20030;-78
2022/03/24 02:06:51;;;;;;;22.00;16.17;;;;;;;6.78;55.81;100987.38;1097741;39;20695;-78
2022/03/24 02:07:53;;;;;;;19.90;15.18;;;;;;;6.86;55.35;100987.75;1088380;54;20046;-78
2022/03/24 02:08:57;;;;;;;19.17;14.73;;;;;;;6.87;55.34;100989.47;1088369;54;20082;-79
2022/03/24 02:10:01;;;;;;;21.17;14.63;;;;;;;6.89;55.49;100992.00;1088352;54;20098;-78
2022/03/24 02:11:07;;;;;;;18.77;13.68;;;;;;;6.93;55.17;100990.88;1088352;54;20764;-78
2022/03/24 02:12:12;;;;;;;20.42;14.95;;;;;;;6.94;55.02;100984.63;1088406;54;20023;-79
2022/03/24 02:13:17;;;;;;;18.27;13.88;;;;;;;6.95;55.10;100984.50;1088469;54;20041;-78
2022/03/24 02:14:18;;;;;;;20.92;13.57;;;;;;;6.90;54.89;100983.94;1088327;54;20030;-78
2022/03/24 02:15:23;;;;;;;21.88;14.88;;;;;;;6.91;54.87;100982.97;1088254;54;20042;-77
2022/03/24 02:16:29;;;;;;;22.52;16.23;;;;;;;6.72;55.51;100983.31;1088237;54;20034;-77
2022/03/24 02:17:34;;;;;;;23.85;16.90;;;;;;;6.50;56.10;100983.81;1088664;46;20046;-78
2022/03/24 02:18:35;;;;;;;23.63;17.40;;;;;;;6.45;56.34;100991.19;1088417;54;20038;-77
2022/03/24 02:19:40;;;;;;;23.33;17.52;;;;;;;6.43;56.25;100979.81;1089084;46;20026;-77
2022/03/24 02:20:42;;;;;;;24.80;17.58;;;;;;;6.44;56.33;100982.38;1088312;54;20030;-78
2022/03/24 02:21:47;;;;;;;24.00;17.10;;;;;;;6.49;56.07;100984.75;1088344;54;20026;-78
2022/03/24 02:22:51;;;;;;;24.20;18.17;;;;;;;6.39;56.46;100985.31;1090927;46;20059;-78
2022/03/24 02:23:55;;;;;;;23.23;17.48;;;;;;;6.35;56.51;100989.09;1088467;54;20023;-79
2022/03/24 02:24:57;;;;;;;22.27;16.23;;;;;;;6.45;56.22;100983.22;1088331;54;20042;-78
2022/03/24 02:26:03;;;;;;;20.95;14.75;;;;;;;6.50;55.92;100986.47;1088396;54;20073;-79
2022/03/24 02:27:05;;;;;;;22.23;15.43;;;;;;;6.48;55.54;100983.88;1091285;46;20070;-77
2022/03/24 02:28:10;;;;;;;19.65;13.70;;;;;;;6.51;55.41;100988.19;1088326;54;20034;-78
2022/03/24 02:29:13;;;;;;;20.67;13.88;;;;;;;6.50;55.09;100981.16;1088346;54;20090;-77
2022/03/24 02:30:17;;;;;;;17.98;13.75;;;;;;;6.40;54.87;100986.16;1088331;54;20038;-78
2022/03/24 02:31:20;;;;;;;18.02;13.07;;;;;;;6.43;54.95;100985.97;1088314;54;20030;-78
2022/03/24 02:32:24;;;;;;;19.67;12.70;;;;;;;6.45;54.73;100994.72;1088258;54;20041;-79
2022/03/24 02:33:25;;;;;;;19.95;12.70;;;;;;;6.40;54.70;100987.03;1088356;54;20038;-78
2022/03/24 02:34:47;;;;;;;16.35;12.15;;;;;;;6.37;54.78;100987.22;1088304;54;20038;-77
2022/03/24 02:35:50;;;;;;;16.92;11.98;;;;;;;6.32;54.85;100984.00;1088657;46;20058;-78
2022/03/24 02:36:55;;;;;;;18.40;12.95;;;;;;;6.33;54.84;100990.16;1088312;54;20030;-77
2022/03/24 02:38:02;;;;;;;17.48;12.25;;;;;;;6.31;55.15;100992.91;1088321;54;20035;-78
2022/03/24 02:39:04;;;;;;;18.17;12.23;;;;;;;6.29;54.76;100986.84;1088242;54;20034;-78
2022/03/24 02:40:09;;;;;;;17.02;12.35;;;;;;;6.32;54.88;100991.97;1088214;54;20730;-78
2022/03/24 02:41:13;;;;;;;18.63;12.93;;;;;;;6.31;54.95;100994.69;1088988;31;20746;-78
2022/03/24 02:42:20;;;;;;;18.85;12.60;;;;;;;6.30;55.22;100990.34;1088333;54;20053;-77
2022/03/24 02:43:22;;;;;;;21.20;13.65;;;;;;;6.28;55.38;100989.59;1088226;54;20053;-77
2022/03/24 02:44:28;;;;;;;18.25;12.75;;;;;;;6.27;55.09;100993.19;1088263;54;20015;-78
2022/03/24 02:45:32;;;;;;;18.70;13.15;;;;;;;6.23;55.40;100990.72;1088259;54;20023;-78
2022/03/24 02:46:34;;;;;;;16.20;12.30;;;;;;;6.24;55.37;100991.56;1088247;54;20033;-77
2022/03/24 02:47:38;;;;;;;16.48;12.75;;;;;;;6.20;55.21;100990.06;1088305;54;20038;-77
2022/03/24 02:48:40;;;;;;;18.80;13.60;;;;;;;6.20;55.16;100984.75;1088076;54;20034;-79
2022/03/24 02:49:45;;;;;;;16.67;12.35;;;;;;;6.24;54.98;100986.25;1088004;54;20146;-78
2022/03/24 02:50:47;;;;;;;18.05;11.65;;;;;;;6.26;54.85;100983.53;1088276;54;20034;-77
2022/03/24 02:51:52;;;;;;;17.02;11.50;;;;;;;6.26;54.91;100989.66;1088309;54;20031;-79
2022/03/24 02:52:56;;;;;;;16.17;11.18;;;;;;;6.26;54.72;100994.97;1088554;46;20025;-78
2022/03/24 02:54:00;;;;;;;17.77;11.70;;;;;;;6.24;55.09;100994.22;1088414;46;20022;-77
2022/03/24 02:55:05;;;;;;;16.58;11.15;;;;;;;6.20;54.98;100990.06;1088335;54;20042;-77
2022/03/24 02:56:07;;;;;;;16.80;11.85;;;;;;;6.16;55.14;100992.03;1091818;46;20038;-80
2022/03/24 02:57:12;;;;;;;16.13;11.38;;;;;;;6.15;55.04;100989.47;1088444;54;20099;-77
2022/03/24 02:58:14;;;;;;;16.48;11.50;;;;;;;6.08;55.14;100997.81;1088464;54;20027;-79
2022/03/24 02:59:20;;;;;;;16.52;11.65;;;;;;;6.08;55.13;101003.13;1088391;54;20082;-79
2022/03/24 03:00:27;;;;;;;16.23;10.93;;;;;;;6.04;55.30;100991.00;1088401;54;20913;-79
2022/03/24 03:01:29;;;;;;;17.20;12.32;;;;;;;5.97;55.40;100994.06;1088402;54;20118;-79
2022/03/24 03:02:33;;;;;;;16.17;12.02;;;;;;;5.96;55.45;100998.50;1088423;54;20118;-77
2022/03/24 03:03:34;;;;;;;21.08;13.05;;;;;;;5.95;55.43;100994.16;1088989;46;20025;-78
2022/03/24 03:04:39;;;;;;;18.75;11.70;;;;;;;5.95;55.56;100999.47;1088443;54;20011;-78
2022/03/24 03:05:43;;;;;;;17.70;11.05;;;;;;;5.93;55.40;101004.00;1088382;54;20038;-78
2022/03/24 03:06:47;;;;;;;18.13;11.60;;;;;;;5.92;55.10;100997.00;1088469;54;20014;-77
2022/03/24 03:07:51;;;;;;;14.32;10.50;;;;;;;5.96;54.90;101003.81;1089808;46;20034;-78
2022/03/24 03:08:53;;;;;;;16.40;10.95;;;;;;;5.94;55.11;101003.06;1088985;46;20027;-82
2022/03/24 03:09:59;;;;;;;18.10;11.20;;;;;;;5.94;55.32;101003.06;1090419;39;20625;-80
2022/03/24 03:11:01;;;;;;;18.73;10.93;;;;;;;5.92;55.13;101004.97;1088391;54;20030;-79
2022/03/24 03:12:08;;;;;;;15.55;10.27;;;;;;;5.95;54.91;101002.13;1088381;54;20030;-80
2022/03/24 03:13:10;;;;;;;14.25;9.85;;;;;;;5.99;54.84;101002.81;1088203;54;20062;-78
2022/03/24 03:14:16;;;;;;;14.90;10.93;;;;;;;5.90;54.93;100999.72;1088204;54;20030;-78
2022/03/24 03:15:20;;;;;;;15.07;11.10;;;;;;;5.93;54.91;101001.38;1088305;54;20034;-77
2022/03/24 03:16:21;;;;;;;16.15;10.88;;;;;;;5.93;54.77;101004.84;1088261;54;20035;-78
2022/03/24 03:17:28;;;;;;;16.08;10.65;;;;;;;5.94;54.70;100995.13;1088311;54;20037;-77
2022/03/24 03:18:31;;;;;;;16.48;10.23;;;;;;;5.91;54.71;101004.09;1088282;54;20098;-78
2022/03/24 03:19:35;;;;;;;14.88;10.10;;;;;;;5.92;54.60;101000.50;1089540;46;20022;-77
2022/03/24 03:20:37;;;;;;;16.42;10.30;;;;;;;5.89;54.47;101002.47;1087943;54;20039;-77
2022/03/24 03:21:41;;;;;;;12.75;9.73;;;;;;;5.93;54.58;100998.72;1087802;54;20030;-77
2022/03/24 03:22:46;;;;;;;14.02;9.43;;;;;;;5.98;54.34;101007.25;1087831;54;20034;-77
2022/03/24 03:23:47;;;;;;;14.45;10.27;;;;;;;5.94;54.40;101005.72;1088189;54;20042;-77
2022/03/24 03:24:51;;;;;;;12.25;9.15;;;;;;;5.96;54.30;101001.16;1088263;54;20071;-77
2022/03/24 03:25:56;;;;;;;16.00;10.57;;;;;;;5.95;54.46;101004.78;1088332;54;20026;-76
2022/03/24 03:27:00;;;;;;;13.73;9.75;;;;;;;5.94;54.45;101005.72;1088264;54;20114;-77
2022/03/24 03:28:02;;;;;;;14.98;9.57;;;;;;;5.94;54.23;101003.06;1088263;54;20030;-77
2022/03/24 03:29:07;;;;;;;14.43;9.18;;;;;;;5.94;54.28;101005.72;1088326;54;20034;-77
2022/03/24 03:31:26;;;;;;;14.75;9.15;;;;;;;5.89;54.66;101003.34;1087505;54;20029;-80
2022/03/24 03:32:31;;;;;;;15.32;9.98;;;;;;;5.91;54.72;101011.22;1087905;54;20029;-81
2022/03/24 03:33:33;;;;;;;14.25;9.80;;;;;;;5.88;54.81;101006.06;1088044;54;20030;-81
2022/03/24 03:34:38;;;;;;;15.18;10.63;;;;;;;5.83;55.10;101009.00;1087814;54;20085;-80
2022/03/24 03:35:39;;;;;;;19.83;11.63;;;;;;;5.78;55.53;101017.22;1088315;46;20030;-79
2022/03/24 03:36:44;;;;;;;15.40;11.75;;;;;;;5.76;55.67;101015.63;1087352;54;20046;-79
2022/03/24 03:37:45;;;;;;;17.70;12.23;;;;;;;5.73;55.64;101019.31;1087435;54;20034;-80
2022/03/24 03:38:50;;;;;;;15.63;11.07;;;;;;;5.72;56.04;101022.91;1087578;54;20027;-79
2022/03/24 03:39:54;;;;;;;16.15;10.77;;;;;;;5.71;55.89;101015.03;1088305;46;20580;-80
2022/03/24 03:40:59;;;;;;;20.90;12.00;;;;;;;5.66;56.30;101017.97;1087872;54;20014;-78
2022/03/24 03:42:04;;;;;;;15.73;10.50;;;;;;;5.65;55.90;101024.22;1089915;46;20050;-79
2022/03/24 03:43:06;;;;;;;19.30;12.27;;;;;;;5.62;55.83;101016.44;1087739;46;20069;-79
2022/03/24 03:44:11;;;;;;;19.80;11.43;;;;;;;5.57;56.11;101015.84;1086939;54;20556;-79
2022/03/24 03:45:16;;;;;;;15.63;11.43;;;;;;;5.58;56.10;101025.50;1087210;54;20041;-79
2022/03/24 03:46:17;;;;;;;15.88;11.30;;;;;;;5.55;56.09;101018.56;1087347;54;20065;-77
2022/03/24 03:47:21;;;;;;;15.82;11.10;;;;;;;5.55;56.00;101015.06;1087694;54;20592;-80
2022/03/24 03:48:23;;;;;;;16.90;11.10;;;;;;;5.60;55.95;101026.25;1088091;54;20041;-79
2022/03/24 03:49:27;;;;;;;16.95;11.23;;;;;;;5.60;55.93;101023.59;1087777;54;20042;-79
2022/03/24 03:50:29;;;;;;;15.73;11.98;;;;;;;5.51;56.68;101032.97;1087639;54;20058;-79
2022/03/24 03:51:33;;;;;;;19.85;13.10;;;;;;;5.41;57.10;101029.97;1087386;54;20624;-80
2022/03/24 03:52:37;;;;;;;19.45;14.02;;;;;;;5.30;57.70;101024.41;1087633;54;20034;-80
2022/03/24 03:53:39;;;;;;;20.70;15.35;;;;;;;5.27;58.32;101033.41;1087566;54;20049;-80
2022/03/24 03:54:43;;;;;;;21.80;15.95;;;;;;;5.19;58.38;101038.28;1087453;54;20102;-80
2022/03/24 03:55:45;;;;;;;24.15;17.33;;;;;;;5.04;59.03;101028.56;1087667;54;20018;-78
2022/03/24 03:56:52;;;;;;;27.38;18.27;;;;;;;4.92;59.69;101027.41;1087094;54;20038;-79
2022/03/24 03:57:53;;;;;;;26.38;17.83;;;;;;;4.89;59.36;101035.53;1087294;54;20038;-78
2022/03/24 03:58:57;;;;;;;25.27;18.15;;;;;;;4.80;59.77;101028.94;1087400;54;20607;-79
2022/03/24 04:00:52;;;;;;;26.75;18.27;;;;;;;4.70;59.96;101036.53;1087600;54;20038;-79
2022/03/24 04:01:24;;;;;;;24.90;18.25;;;;;;;4.59;60.13;101028.31;1087577;54;20042;-80
2022/03/24 04:02:25;;;;;;;25.70;17.50;;;;;;;4.53;60.28;101026.84;1087470;54;20646;-80
2022/03/24 04:03:31;;;;;;;26.70;18.10;;;;;;;4.58;60.14;101031.91;1087690;54;20069;-79
2022/03/24 04:04:32;;;;;;;28.00;18.05;;;;;;;4.56;60.31;101026.69;1090709;39;20731;-80
2022/03/24 04:05:36;;;;;;;21.25;16.77;;;;;;;4.52;60.28;101033.94;1087470;54;20049;-79
2022/03/24 04:06:41;;;;;;;25.70;17.80;;;;;;;4.55;60.50;101030.28;1088200;46;20042;-79
2022/03/24 04:07:43;;;;;;;28.85;17.88;;;;;;;4.44;60.74;101024.69;1087573;54;20035;-78
2022/03/24 04:08:47;;;;;;;27.42;18.08;;;;;;;4.45;60.70;101029.88;1087652;54;20027;-80
2022/03/24 04:09:50;;;;;;;31.63;18.65;;;;;;;4.44;60.71;101027.34;1087617;54;20057;-79
2022/03/24 04:10:54;;;;;;;27.08;18.10;;;;;;;4.40;60.78;101031.06;1087906;46;20041;-79
2022/03/24 04:12:01;;;;;;;26.63;19.23;;;;;;;4.35;61.22;101029.53;1087641;54;20061;-79
2022/03/24 04:13:02;;;;;;;26.02;17.75;;;;;;;4.29;61.17;101027.22;1087597;54;20041;-79
2022/03/24 04:14:08;;;;;;;29.20;18.58;;;;;;;4.29;61.28;101026.34;1091627;39;20578;-79
2022/03/24 04:15:09;;;;;;;26.75;18.80;;;;;;;4.29;61.26;101024.56;1087386;54;20046;-80
2022/03/24 04:16:14;;;;;;;25.13;18.27;;;;;;;4.28;61.33;101021.97;1087441;54;20599;-80
2022/03/24 04:17:17;;;;;;;26.08;19.42;;;;;;;4.31;61.23;101024.47;1087672;54;20038;-79
2022/03/24 04:18:22;;;;;;;29.05;18.45;;;;;;;4.29;60.92;101026.34;1087521;54;20565;-79
2022/03/24 04:19:24;;;;;;;25.10;18.52;;;;;;;4.30;61.17;101020.97;1087597;54;20038;-79
2022/03/24 04:20:29;;;;;;;26.48;18.98;;;;;;;4.28;61.40;101029.94;1087665;54;20037;-79
2022/03/24 04:21:30;;;;;;;29.73;19.20;;;;;;;4.31;61.20;101029.78;1087493;54;20034;-79
2022/03/24 04:22:35;;;;;;;23.90;18.05;;;;;;;4.37;61.01;101027.66;1087569;54;20033;-78
2022/03/24 04:23:38;;;;;;;27.33;18.55;;;;;;;4.44;60.96;101027.34;1087445;54;20607;-79
2022/03/24 04:24:42;;;;;;;22.67;17.48;;;;;;;4.52;60.67;101030.44;1087450;54;20030;-79
2022/03/24 04:25:45;;;;;;;25.23;18.77;;;;;;;4.40;60.99;101033.72;1087650;54;20046;-78
2022/03/24 04:26:49;;;;;;;26.20;18.77;;;;;;;4.31;61.35;101027.97;1087420;54;20037;-79
2022/03/24 04:27:53;;;;;;;28.52;19.55;;;;;;;4.12;62.29;101037.78;1087758;54;20042;-79
2022/03/24 04:28:58;;;;;;;26.88;19.40;;;;;;;4.03;62.42;101025.91;1087578;54;20049;-79
2022/03/24 04:30:00;;;;;;;24.67;17.90;;;;;;;4.05;62.59;101037.28;1087552;54;20038;-79
2022/03/24 04:31:04;;;;;;;29.63;19.83;;;;;;;4.06;62.48;101036.34;1087548;54;20050;-79
2022/03/24 04:32:07;;;;;;;25.55;19.48;;;;;;;4.21;62.18;101029.38;1087083;54;20034;-79
2022/03/24 04:33:11;;;;;;;25.70;18.85;;;;;;;4.22;61.85;101039.91;1087635;54;20078;-79
2022/03/24 04:34:13;;;;;;;23.23;17.90;;;;;;;4.17;62.27;101036.63;1087719;54;20042;-80
2022/03/24 04:35:18;;;;;;;25.45;19.80;;;;;;;4.00;62.89;101036.63;1087849;46;20027;-78
2022/03/24 04:36:22;;;;;;;25.27;19.50;;;;;;;3.93;63.29;101038.75;1087539;54;20046;-79
2022/03/24 04:37:25;;;;;;;27.45;19.70;;;;;;;3.87;63.66;101039.91;1087559;54;20046;-79
2022/03/24 04:38:29;;;;;;;29.08;19.48;;;;;;;3.86;63.78;101035.56;1087701;54;20042;-78
2022/03/24 04:39:31;;;;;;;27.38;19.02;;;;;;;3.82;64.12;101039.28;1087526;54;20681;-80
2022/03/24 04:40:35;;;;;;;26.35;19.80;;;;;;;3.80;64.38;101043.78;1087641;54;20027;-78
2022/03/24 04:41:41;;;;;;;24.92;18.70;;;;;;;3.83;64.39;101040.13;1087529;54;20053;-78
2022/03/24 04:42:43;;;;;;;28.13;19.30;;;;;;;3.89;64.19;101040.69;1087851;54;20599;-78
2022/03/24 04:43:50;;;;;;;26.30;18.50;;;;;;;3.86;64.50;101042.63;1089210;39;20548;-79
2022/03/24 04:44:51;;;;;;;23.00;17.95;;;;;;;3.83;64.60;101041.00;1087760;54;20039;-80
2022/03/24 04:45:56;;;;;;;26.55;17.83;;;;;;;3.83;64.53;101037.47;1087532;54;20591;-79
2022/03/24 04:46:58;;;;;;;25.00;18.15;;;;;;;3.85;64.32;101047.09;1087485;54;20042;-78
2022/03/24 04:48:03;;;;;;;24.88;18.23;;;;;;;3.82;64.66;101046.38;1088385;39;20488;-79
2022/03/24 04:49:05;;;;;;;27.42;18.30;;;;;;;3.79;64.78;101051.81;1088186;54;20057;-78
2022/03/24 04:50:11;;;;;;;25.98;18.70;;;;;;;3.79;64.87;101054.47;1088138;54;20042;-79
2022/03/24 04:51:16;;;;;;;24.77;17.92;;;;;;;3.73;65.00;101048.53;1088172;54;20030;-80
2022/03/24 04:52:19;;;;;;;26.23;19.58;;;;;;;3.72;64.97;101053.91;1088044;54;20046;-79
2022/03/24 04:53:29;;;;;;;26.80;19.50;;;;;;;3.78;65.18;101050.09;1088182;54;20094;-80
2022/03/24 04:54:30;;;;;;;25.27;18.95;;;;;;;3.81;64.61;101053.44;1088080;54;20038;-79
2022/03/24 04:55:35;;;;;;;25.60;18.45;;;;;;;3.83;64.45;101048.94;1088035;54;20042;-79